Time;durP1;ratioP1;P1;durP2;ratioP2;P2;SDS_P1;SDS_P2;PMS_P1;PMS_P2;Temp;Humidity;BMP_temperature;BMP_pressure;BME280_temperature;BME280_humidity;BME280_pressure;Samples;Min_cycle;Max_cycle;Signal;HPM_P1;HPM_P2
2022/08/16 00:00:37;;;;;;;8.27;6.47;;;;;;;17.31;55.74;100546.09;4991613;28;20509;-78
2022/08/16 00:03:03;;;;;;;8.63;5.32;;;;;;;17.39;55.35;100549.00;4987657;28;20123;-81
2022/08/16 00:05:29;;;;;;;5.97;5.00;;;;;;;17.40;55.66;100540.13;4996645;28;20053;-80
2022/08/16 00:07:56;;;;;;;8.27;5.30;;;;;;;17.37;55.49;100543.84;4990770;28;20047;-80
2022/08/16 00:10:23;;;;;;;9.02;5.70;;;;;;;17.45;55.52;100543.28;4992101;28;20077;-77
2022/08/16 00:12:49;;;;;;;5.60;4.68;;;;;;;17.43;55.24;100534.63;4991252;28;20074;-78
2022/08/16 00:15:30;;;;;;;6.30;4.53;;;;;;;17.34;55.12;100535.31;4972436;28;20030;-77
2022/08/16 00:17:55;;;;;;;13.50;5.85;;;;;;;17.30;55.20;100544.41;4964923;28;20073;-80
2022/08/16 00:20:22;;;;;;;11.30;7.05;;;;;;;17.30;55.20;100533.84;4958091;28;20079;-79
2022/08/16 00:22:48;;;;;;;7.13;5.43;;;;;;;17.32;55.14;100531.94;4981892;28;20061;-78
2022/08/16 00:25:18;;;;;;;7.00;4.93;;;;;;;17.21;55.57;100533.56;4980519;28;20035;-79
2022/08/16 00:27:43;;;;;;;12.10;6.63;;;;;;;17.13;55.66;100529.78;4999081;28;20035;-79
2022/08/16 00:30:12;;;;;;;11.75;5.63;;;;;;;17.14;55.32;100534.97;4987803;28;21265;-78
2022/08/16 00:32:39;;;;;;;8.68;6.80;;;;;;;17.03;55.34;100533.09;4980392;28;20030;-78
2022/08/16 00:35:11;;;;;;;6.85;5.95;;;;;;;17.01;55.69;100531.53;4990230;28;20073;-78
2022/08/16 00:37:36;;;;;;;7.93;5.90;;;;;;;17.06;55.69;100532.03;4998644;28;20221;-76
2022/08/16 00:40:05;;;;;;;9.40;5.07;;;;;;;17.00;55.86;100532.47;4979338;28;20503;-77
2022/08/16 00:42:30;;;;;;;10.98;7.03;;;;;;;16.91;55.72;100533.16;4981960;28;20074;-78
2022/08/16 00:45:02;;;;;;;9.70;6.13;;;;;;;16.71;56.11;100530.13;4966331;28;20043;-78
2022/08/16 00:47:28;;;;;;;9.00;6.28;;;;;;;16.58;56.86;100531.97;4968149;28;20060;-77
2022/08/16 00:49:54;;;;;;;6.80;6.07;;;;;;;16.57;56.74;100532.91;4986058;28;20254;-78
2022/08/16 00:52:19;;;;;;;10.00;7.07;;;;;;;16.66;56.79;100534.88;4974478;28;20034;-80
2022/08/16 00:54:45;;;;;;;9.65;6.53;;;;;;;16.69;56.95;100533.81;4977808;28;20048;-77
2022/08/16 00:57:11;;;;;;;10.00;8.13;;;;;;;16.70;56.77;100527.59;4983673;28;20073;-78
2022/08/16 00:59:38;;;;;;;12.93;7.32;;;;;;;16.71;56.73;100524.00;4986717;28;20071;-78
2022/08/16 01:02:06;;;;;;;14.50;8.77;;;;;;;16.60;56.83;100532.69;4972034;28;20118;-76
2022/08/16 01:04:33;;;;;;;12.65;7.22;;;;;;;16.59;57.10;100538.91;4974145;28;20034;-77
2022/08/16 01:07:01;;;;;;;11.50;8.82;;;;;;;16.63;57.18;100540.38;4987180;28;20011;-77
2022/08/16 01:09:27;;;;;;;8.50;7.38;;;;;;;16.52;56.84;100543.78;4985168;28;20303;-78
2022/08/16 01:11:53;;;;;;;12.43;7.95;;;;;;;16.47;57.14;100538.00;4971853;28;20710;-77
2022/08/16 01:14:31;;;;;;;10.93;8.20;;;;;;;16.46;57.41;100543.38;4991096;28;20134;-78
2022/08/16 01:16:58;;;;;;;17.75;8.20;;;;;;;16.51;57.12;100546.50;4969507;28;20033;-78
2022/08/16 01:19:32;;;;;;;9.15;6.38;;;;;;;16.54;57.22;100541.03;4994866;28;20033;-75
2022/08/16 01:22:04;;;;;;;10.88;8.10;;;;;;;16.53;57.39;100545.47;4983748;28;20054;-75
2022/08/16 01:24:37;;;;;;;10.52;7.97;;;;;;;16.38;57.44;100542.13;4989505;28;20054;-77
2022/08/16 01:27:10;;;;;;;11.20;7.55;;;;;;;16.40;57.71;100540.22;4982999;28;20040;-76
2022/08/16 01:29:42;;;;;;;9.50;7.82;;;;;;;16.39;57.32;100542.94;4970927;28;20043;-79
2022/08/16 01:32:07;;;;;;;9.52;7.45;;;;;;;16.37;57.38;100545.69;4947478;28;20047;-79
2022/08/16 01:34:34;;;;;;;9.02;7.13;;;;;;;16.48;57.36;100549.38;4953577;28;20110;-77
2022/08/16 01:37:07;;;;;;;9.57;8.07;;;;;;;16.59;56.96;100555.56;4968329;28;20030;-77
2022/08/16 01:39:34;;;;;;;11.32;7.22;;;;;;;16.56;56.75;100547.06;4951261;28;20053;-79
2022/08/16 01:42:00;;;;;;;7.68;6.50;;;;;;;16.58;56.89;100547.78;4970540;28;20125;-77
2022/08/16 01:44:27;;;;;;;8.20;5.63;;;;;;;16.59;56.93;100552.94;4974252;28;20022;-79
2022/08/16 01:46:55;;;;;;;8.80;6.80;;;;;;;16.66;56.90;100548.06;4986398;28;20469;-78
2022/08/16 01:49:26;;;;;;;8.98;6.28;;;;;;;16.69;56.87;100549.66;4989655;28;20030;-78
2022/08/16 01:51:57;;;;;;;10.00;6.88;;;;;;;16.63;56.57;100557.06;4976809;28;20094;-79
2022/08/16 01:54:30;;;;;;;12.30;9.02;;;;;;;16.67;56.48;100549.78;4964098;28;20031;-78
2022/08/16 01:56:56;;;;;;;8.23;7.05;;;;;;;16.68;56.73;100554.09;4965113;28;20035;-80
2022/08/16 01:59:22;;;;;;;9.57;6.88;;;;;;;16.76;57.00;100548.31;4971253;28;20037;-80
2022/08/16 02:01:51;;;;;;;11.38;9.25;;;;;;;16.68;56.45;100554.09;4969015;28;20038;-78
2022/08/16 02:04:18;;;;;;;11.13;8.35;;;;;;;16.61;56.86;100543.13;4986414;28;20045;-79
2022/08/16 02:06:43;;;;;;;13.55;9.75;;;;;;;16.58;56.80;100545.16;4973789;28;20097;-79
2022/08/16 02:09:10;;;;;;;13.30;9.88;;;;;;;16.53;57.00;100540.22;4984730;28;21127;-78
2022/08/16 02:11:36;;;;;;;12.65;9.30;;;;;;;16.52;57.29;100537.66;5005806;28;20034;-80
2022/08/16 02:14:03;;;;;;;12.70;8.35;;;;;;;16.49;57.33;100548.41;4986271;28;20038;-78
2022/08/16 02:16:29;;;;;;;12.02;8.05;;;;;;;16.52;57.26;100548.22;4989362;28;20504;-77
2022/08/16 02:18:59;;;;;;;14.90;10.43;;;;;;;16.51;57.35;100546.50;4986621;28;20050;-78
2022/08/16 02:21:25;;;;;;;12.27;7.90;;;;;;;16.56;57.58;100557.59;4972021;28;20058;-77
2022/08/16 02:23:50;;;;;;;13.43;8.73;;;;;;;16.57;57.33;100557.47;4968955;28;20054;-78
2022/08/16 02:26:16;;;;;;;14.38;9.00;;;;;;;16.57;57.33;100561.91;4968592;28;20416;-79
2022/08/16 02:28:42;;;;;;;16.80;9.07;;;;;;;16.60;57.05;100552.00;4975896;28;20414;-76
2022/08/16 02:31:12;;;;;;;12.85;8.95;;;;;;;16.60;57.20;100546.72;4969918;28;20046;-78
2022/08/16 02:33:38;;;;;;;11.77;8.60;;;;;;;16.60;56.77;100548.53;4980124;28;20593;-77
2022/08/16 02:36:04;;;;;;;12.85;10.55;;;;;;;16.55;56.98;100540.06;4986348;28;20122;-78
2022/08/16 02:38:32;;;;;;;20.45;10.65;;;;;;;16.47;57.06;100542.44;4984108;28;20041;-78
2022/08/16 02:41:00;;;;;;;9.90;7.90;;;;;;;16.53;57.43;100549.88;4969131;28;20034;-77
2022/08/16 02:43:28;;;;;;;10.88;8.05;;;;;;;16.67;57.22;100543.66;4981160;28;20520;-78
2022/08/16 02:45:57;;;;;;;10.57;8.50;;;;;;;16.80;57.20;100544.47;4975271;28;20038;-79
2022/08/16 02:48:24;;;;;;;12.10;8.35;;;;;;;16.90;56.97;100537.59;4986311;28;20046;-78
2022/08/16 02:50:50;;;;;;;12.82;9.73;;;;;;;16.93;56.52;100541.81;4981526;28;20031;-79
2022/08/16 02:53:16;;;;;;;14.77;10.38;;;;;;;16.90;56.50;100531.47;4975203;28;20026;-78
2022/08/16 02:55:41;;;;;;;15.95;10.15;;;;;;;16.91;56.51;100533.16;4983339;28;20050;-78
2022/08/16 02:58:09;;;;;;;13.40;9.55;;;;;;;16.99;56.67;100544.00;4963361;28;20092;-77
2022/08/16 03:00:34;;;;;;;15.73;9.35;;;;;;;17.03;56.36;100548.13;4994512;28;20034;-76
2022/08/16 03:03:01;;;;;;;10.77;9.27;;;;;;;17.01;56.46;100550.84;4980061;28;20055;-77
2022/08/16 03:05:27;;;;;;;13.05;9.45;;;;;;;16.99;56.53;100552.75;4959020;28;20074;-78
2022/08/16 03:07:52;;;;;;;14.73;9.63;;;;;;;16.95;56.24;100547.81;4966371;28;20074;-77
2022/08/16 03:10:18;;;;;;;9.45;7.93;;;;;;;16.96;56.36;100541.59;4995507;28;20026;-79
2022/08/16 03:12:48;;;;;;;13.32;9.13;;;;;;;16.88;56.34;100533.38;4992867;28;20050;-77
2022/08/16 03:15:14;;;;;;;13.85;10.50;;;;;;;16.75;56.38;100534.25;4994745;28;20022;-76
2022/08/16 03:17:41;;;;;;;15.30;10.98;;;;;;;16.64;56.84;100531.50;4986670;28;20055;-77
2022/08/16 03:20:10;;;;;;;15.27;10.32;;;;;;;16.58;56.98;100539.88;4955867;28;20037;-77
2022/08/16 03:22:37;;;;;;;13.85;9.63;;;;;;;16.64;56.79;100539.41;4984473;28;20046;-77
2022/08/16 03:25:10;;;;;;;15.80;10.60;;;;;;;16.69;56.54;100539.97;4983156;28;20581;-78
2022/08/16 03:27:38;;;;;;;13.02;9.32;;;;;;;16.66;56.75;100544.59;4988800;28;20027;-80
2022/08/16 03:30:14;;;;;;;16.05;10.95;;;;;;;16.58;56.95;100545.16;4993182;28;20620;-77
2022/08/16 03:32:40;;;;;;;16.20;10.75;;;;;;;16.51;56.81;100552.66;4989806;28;20038;-79
2022/08/16 03:35:06;;;;;;;15.07;10.40;;;;;;;16.44;57.03;100540.00;4948660;28;20148;-77
2022/08/16 03:37:34;;;;;;;16.50;12.38;;;;;;;16.35;57.20;100544.97;4968920;28;20069;-77
2022/08/16 03:40:03;;;;;;;18.15;12.85;;;;;;;16.23;57.52;100547.63;4971265;28;20046;-78
2022/08/16 03:42:30;;;;;;;17.58;12.75;;;;;;;16.20;57.94;100553.94;4979048;28;20515;-77
2022/08/16 03:44:56;;;;;;;19.58;13.65;;;;;;;16.17;58.31;100551.50;4968607;28;20041;-78
2022/08/16 03:47:26;;;;;;;19.02;12.10;;;;;;;16.26;57.92;100542.94;4975295;28;20404;-79
2022/08/16 03:49:52;;;;;;;19.77;12.15;;;;;;;16.27;57.75;100544.66;4986332;28;20477;-76
2022/08/16 03:52:21;;;;;;;14.05;10.32;;;;;;;16.32;57.82;100544.34;4988048;28;20030;-77
2022/08/16 03:54:48;;;;;;;17.23;11.10;;;;;;;16.40;57.86;100548.13;4990424;28;20045;-76
2022/08/16 03:57:13;;;;;;;15.63;11.00;;;;;;;16.50;57.60;100544.84;4977620;28;20129;-77
2022/08/16 03:59:39;;;;;;;12.88;9.63;;;;;;;16.46;57.44;100546.00;4974622;28;20126;-76
2022/08/16 04:02:10;;;;;;;18.00;10.27;;;;;;;16.52;57.37;100542.94;4969387;28;20058;-78
2022/08/16 04:04:37;;;;;;;14.98;10.52;;;;;;;16.52;57.39;100537.66;4983790;28;20129;-76
2022/08/16 04:07:05;;;;;;;14.82;9.88;;;;;;;16.47;57.48;100545.06;4969264;28;20101;-75
2022/08/16 04:09:33;;;;;;;16.67;11.63;;;;;;;16.46;57.31;100543.38;4982293;28;20125;-77
2022/08/16 04:11:59;;;;;;;18.20;12.80;;;;;;;16.34;57.81;100548.53;5003006;28;20235;-79
2022/08/16 04:14:25;;;;;;;14.68;10.43;;;;;;;16.35;57.95;100547.63;4957280;28;20161;-77
2022/08/16 04:16:52;;;;;;;16.98;11.98;;;;;;;16.42;57.83;100551.50;4960053;28;20042;-78
2022/08/16 04:19:43;;;;;;;15.25;11.93;;;;;;;16.53;57.51;100561.31;4967328;28;20070;-79
2022/08/16 04:22:10;;;;;;;15.23;10.55;;;;;;;16.56;57.78;100560.25;4950743;28;20178;-78
2022/08/16 04:24:45;;;;;;;15.77;11.32;;;;;;;16.55;57.66;100559.38;4962369;28;20088;-79
2022/08/16 04:27:11;;;;;;;15.68;11.02;;;;;;;16.63;57.49;100550.94;4966517;28;20035;-78
2022/08/16 04:29:37;;;;;;;16.63;9.85;;;;;;;16.70;57.15;100552.19;4995471;28;20504;-77
2022/08/16 04:32:03;;;;;;;16.70;9.32;;;;;;;16.71;57.19;100556.53;4985248;28;20175;-78
2022/08/16 04:34:34;;;;;;;11.32;8.98;;;;;;;16.79;57.23;100558.63;4973747;28;20026;-76
2022/08/16 04:37:00;;;;;;;15.55;10.85;;;;;;;16.81;57.09;100554.09;4980167;28;20454;-77
2022/08/16 04:39:27;;;;;;;12.57;9.57;;;;;;;16.86;57.12;100556.41;4971559;28;20030;-78
2022/08/16 04:41:53;;;;;;;15.52;11.40;;;;;;;16.88;56.99;100554.50;4982179;28;20094;-77
2022/08/16 04:44:19;;;;;;;13.15;10.57;;;;;;;16.81;56.84;100549.66;4997750;28;20125;-79
2022/08/16 04:46:44;;;;;;;23.40;14.13;;;;;;;16.77;56.73;100558.72;4972509;28;20201;-77
2022/08/16 04:49:10;;;;;;;17.15;12.60;;;;;;;16.76;57.01;100553.59;4986145;28;20420;-79
2022/08/16 04:51:40;;;;;;;15.13;10.75;;;;;;;16.86;57.14;100559.03;4982920;28;20027;-77
2022/08/16 04:54:07;;;;;;;15.07;11.95;;;;;;;16.87;56.72;100561.59;4961338;28;20050;-79
2022/08/16 04:56:33;;;;;;;20.90;14.10;;;;;;;16.83;56.62;100566.22;4971714;28;20022;-77
2022/08/16 04:58:59;;;;;;;20.70;13.75;;;;;;;16.85;56.62;100573.22;4993351;28;20071;-77
2022/08/16 05:01:25;;;;;;;17.02;12.25;;;;;;;16.86;56.56;100574.88;4972653;28;20125;-78
2022/08/16 05:03:52;;;;;;;21.50;12.27;;;;;;;16.87;56.55;100571.28;4970496;28;20589;-77
2022/08/16 05:06:18;;;;;;;21.73;12.88;;;;;;;16.77;56.63;100579.00;4985277;28;20053;-78
2022/08/16 05:08:44;;;;;;;18.05;13.15;;;;;;;16.71;56.95;100577.63;4971792;28;20053;-77
2022/08/16 05:11:16;;;;;;;19.40;13.02;;;;;;;16.76;56.65;100567.63;4951910;28;20033;-79
2022/08/16 05:13:45;;;;;;;22.45;13.60;;;;;;;16.79;56.87;100571.84;4968830;28;20047;-79
2022/08/16 05:16:19;;;;;;;20.50;15.32;;;;;;;16.68;57.24;100572.56;4959271;28;20063;-77
2022/08/16 05:18:45;;;;;;;22.67;14.15;;;;;;;16.98;56.67;100577.50;4966321;28;20134;-76
2022/08/16 05:21:11;;;;;;;17.30;13.13;;;;;;;17.18;56.39;100572.53;4970515;28;20035;-75
2022/08/16 05:23:40;;;;;;;18.42;13.88;;;;;;;17.36;55.77;100575.66;4955774;28;20425;-76
2022/08/16 05:26:06;;;;;;;22.13;13.60;;;;;;;17.49;55.59;100580.91;4957605;28;20118;-77
2022/08/16 05:28:31;;;;;;;18.58;13.43;;;;;;;17.68;55.46;100577.75;4952344;28;20038;-77
2022/08/16 05:30:57;;;;;;;20.98;14.52;;;;;;;17.86;54.64;100576.34;4973129;28;20034;-78
2022/08/16 05:33:27;;;;;;;18.45;15.10;;;;;;;18.15;53.92;100575.94;4982684;28;20069;-79
2022/08/16 05:35:55;;;;;;;20.33;13.63;;;;;;;18.81;53.20;100579.59;4968687;28;20343;-79
2022/08/16 05:38:43;;;;;;;16.27;12.30;;;;;;;19.32;51.98;100579.97;4972903;28;20073;-79
2022/08/16 05:41:13;;;;;;;17.65;13.40;;;;;;;19.56;50.32;100575.31;4971393;28;20026;-77
2022/08/16 05:43:40;;;;;;;17.23;13.02;;;;;;;19.87;50.22;100575.41;4978915;28;20472;-77
2022/08/16 05:46:06;;;;;;;19.75;14.20;;;;;;;20.49;48.03;100577.19;4967191;28;20088;-77
2022/08/16 05:48:32;;;;;;;19.90;13.23;;;;;;;20.19;48.24;100579.78;4975422;28;20042;-77
2022/08/16 05:51:02;;;;;;;19.95;14.05;;;;;;;19.74;48.85;100588.03;4986953;28;20363;-76
2022/08/16 05:53:29;;;;;;;15.88;12.35;;;;;;;19.52;50.45;100592.41;4984707;28;20066;-76
2022/08/16 05:56:14;;;;;;;16.25;12.38;;;;;;;19.22;50.79;100593.97;4986900;28;20034;-77
2022/08/16 05:58:42;;;;;;;15.82;11.60;;;;;;;19.18;51.04;100595.19;4969053;28;20138;-80
2022/08/16 06:01:13;;;;;;;22.27;13.90;;;;;;;19.05;51.68;100597.13;4971628;28;20055;-76
2022/08/16 06:03:41;;;;;;;17.63;13.63;;;;;;;18.97;51.95;100595.13;5003494;28;20566;-78
2022/08/16 06:06:17;;;;;;;20.98;16.10;;;;;;;18.80;52.24;100590.28;4974350;28;20099;-75
2022/08/16 06:08:43;;;;;;;19.60;15.23;;;;;;;18.74;52.36;100585.47;4983862;28;20106;-78
2022/08/16 06:11:09;;;;;;;20.25;15.40;;;;;;;18.86;52.33;100595.09;4984289;28;20101;-78
2022/08/16 06:13:36;;;;;;;20.02;14.95;;;;;;;19.02;52.25;100592.09;4971597;28;20627;-79
2022/08/16 06:16:05;;;;;;;15.55;11.82;;;;;;;19.20;51.92;100598.56;4968559;28;20030;-77
2022/08/16 06:18:32;;;;;;;20.17;14.68;;;;;;;19.28;52.20;100605.88;4970532;28;20030;-80
2022/08/16 06:20:57;;;;;;;18.30;14.05;;;;;;;19.36;51.82;100605.25;4968192;28;20043;-78
2022/08/16 06:23:25;;;;;;;20.25;14.95;;;;;;;19.33;51.66;100601.06;4972325;28;20460;-78
2022/08/16 06:26:00;;;;;;;20.35;16.00;;;;;;;18.96;52.11;100605.81;4982885;28;20031;-79
2022/08/16 06:28:31;;;;;;;16.83;14.02;;;;;;;19.19;52.29;100607.47;4991862;28;20042;-80
2022/08/16 06:30:57;;;;;;;21.42;15.60;;;;;;;18.98;52.63;100614.50;4984691;28;20396;-78
2022/08/16 06:33:23;;;;;;;21.35;15.55;;;;;;;19.18;52.44;100619.03;4981206;28;20066;-79
2022/08/16 06:35:51;;;;;;;24.98;16.73;;;;;;;19.26;52.62;100619.25;4982226;28;20041;-79
2022/08/16 06:38:17;;;;;;;29.33;16.42;;;;;;;19.37;52.49;100621.03;4956914;28;20708;-78
2022/08/16 06:40:43;;;;;;;19.05;14.52;;;;;;;19.40;51.93;100623.44;5003759;28;20034;-76
2022/08/16 06:43:08;;;;;;;20.95;16.77;;;;;;;19.63;51.82;100623.38;4987734;28;20850;-78
2022/08/16 06:45:41;;;;;;;19.67;17.02;;;;;;;19.55;51.49;100626.66;4969027;28;20022;-77
2022/08/16 06:48:11;;;;;;;19.50;15.43;;;;;;;19.75;51.50;100621.50;4964905;28;20140;-78
2022/08/16 06:50:37;;;;;;;22.33;17.50;;;;;;;19.98;50.50;100625.75;4986644;28;20181;-78
2022/08/16 06:53:07;;;;;;;24.23;16.30;;;;;;;19.90;51.80;100628.19;4985848;28;20085;-79
2022/08/16 06:55:34;;;;;;;16.35;14.63;;;;;;;20.41;50.85;100637.22;4971150;28;20137;-79
2022/08/16 06:58:01;;;;;;;21.98;16.05;;;;;;;20.62;49.00;100637.16;4971058;28;20038;-79
2022/08/16 07:00:27;;;;;;;18.33;15.13;;;;;;;20.57;49.98;100634.06;4969166;28;20034;-80
2022/08/16 07:03:01;;;;;;;19.90;15.68;;;;;;;20.63;49.27;100641.50;4999068;28;20719;-78
2022/08/16 07:05:30;;;;;;;21.75;16.30;;;;;;;20.54;48.70;100640.50;4988481;28;20030;-77
2022/08/16 07:08:18;;;;;;;19.80;15.73;;;;;;;20.80;49.17;100643.56;4982325;28;20040;-79
2022/08/16 07:10:45;;;;;;;16.73;14.93;;;;;;;20.83;48.91;100642.44;4974568;28;20026;-80
2022/08/16 07:13:12;;;;;;;21.48;16.10;;;;;;;20.88;48.57;100641.06;4971516;28;20046;-77
2022/08/16 07:15:41;;;;;;;21.83;16.27;;;;;;;21.00;48.48;100643.63;4971880;28;20038;-77
2022/08/16 07:18:07;;;;;;;20.05;14.82;;;;;;;21.22;48.27;100643.44;4968566;28;20034;-79
2022/08/16 07:20:33;;;;;;;22.27;15.52;;;;;;;21.35;48.08;100641.34;4972697;28;20042;-78
2022/08/16 07:22:58;;;;;;;19.90;15.40;;;;;;;21.38;47.19;100642.91;4969548;28;20059;-79
2022/08/16 07:25:33;;;;;;;16.35;13.65;;;;;;;21.49;47.17;100645.47;4972417;28;20492;-79
2022/08/16 07:28:00;;;;;;;24.20;16.60;;;;;;;21.52;47.53;100644.34;4972105;28;20043;-77
2022/08/16 07:30:28;;;;;;;20.15;16.50;;;;;;;21.58;45.81;100649.09;4951285;28;20026;-78
2022/08/16 07:32:56;;;;;;;19.80;15.38;;;;;;;21.51;46.73;100651.47;4965291;28;20050;-77
2022/08/16 07:35:22;;;;;;;17.88;14.52;;;;;;;21.78;46.14;100655.28;4967515;28;20030;-78
2022/08/16 07:37:48;;;;;;;16.75;11.68;;;;;;;21.86;46.14;100652.72;4961255;28;20054;-77
2022/08/16 07:40:20;;;;;;;20.98;14.98;;;;;;;21.80;45.42;100649.78;4990847;28;20058;-79
2022/08/16 07:42:46;;;;;;;19.70;14.52;;;;;;;21.83;45.08;100655.69;4983003;28;20081;-77
2022/08/16 07:45:12;;;;;;;17.83;11.55;;;;;;;22.16;46.22;100656.25;4972718;28;20379;-78
2022/08/16 07:47:43;;;;;;;20.40;15.13;;;;;;;22.33;45.03;100655.50;4961515;28;20062;-79
2022/08/16 07:50:13;;;;;;;17.02;13.02;;;;;;;22.44;45.25;100653.66;4970357;28;20060;-79
2022/08/16 07:52:40;;;;;;;20.02;15.00;;;;;;;22.40;44.29;100655.75;5002276;28;20042;-79
2022/08/16 07:55:07;;;;;;;22.40;13.45;;;;;;;23.85;42.18;100657.81;4978404;28;20555;-78
2022/08/16 07:57:33;;;;;;;16.48;13.38;;;;;;;26.40;35.53;100655.03;4974914;28;20078;-77
2022/08/16 07:59:59;;;;;;;14.40;10.57;;;;;;;28.07;34.95;100656.50;4971086;28;20793;-78
2022/08/16 08:02:27;;;;;;;20.02;13.40;;;;;;;27.13;35.74;100656.66;4981604;28;20066;-78
2022/08/16 08:04:55;;;;;;;18.13;11.65;;;;;;;26.96;34.09;100655.88;4959112;28;20047;-79
2022/08/16 08:07:22;;;;;;;21.42;12.60;;;;;;;26.00;35.51;100652.25;4982795;28;20117;-77
2022/08/16 08:09:50;;;;;;;15.05;13.20;;;;;;;26.46;35.16;100654.34;4976011;28;20158;-79
2022/08/16 08:12:18;;;;;;;15.40;12.40;;;;;;;28.59;31.75;100661.03;4985306;28;20636;-76
2022/08/16 08:14:45;;;;;;;16.10;10.52;;;;;;;29.80;29.86;100661.41;4968900;28;20030;-79
2022/08/16 08:17:11;;;;;;;15.43;12.98;;;;;;;30.54;27.82;100658.22;4972521;28;20042;-80
2022/08/16 08:19:40;;;;;;;14.32;11.07;;;;;;;32.63;25.34;100656.44;4967216;28;20041;-75
2022/08/16 08:22:08;;;;;;;12.95;9.10;;;;;;;33.44;24.28;100665.88;4969596;28;20088;-79
2022/08/16 08:24:42;;;;;;;11.35;9.05;;;;;;;33.35;23.71;100656.38;4971139;28;20038;-77
2022/08/16 08:27:08;;;;;;;12.10;8.75;;;;;;;34.94;22.56;100658.59;4968916;28;20038;-77
2022/08/16 08:29:36;;;;;;;10.02;8.38;;;;;;;35.76;22.58;100655.28;4980101;28;20031;-76
2022/08/16 08:32:01;;;;;;;10.93;9.55;;;;;;;35.68;20.53;100660.03;4963087;28;20084;-76
2022/08/16 08:34:27;;;;;;;9.73;8.73;;;;;;;34.97;21.27;100653.53;4968707;28;20286;-76
2022/08/16 08:36:53;;;;;;;9.68;8.73;;;;;;;33.33;23.54;100659.28;4970817;28;20484;-78
2022/08/16 08:39:31;;;;;;;12.77;7.05;;;;;;;33.87;22.71;100665.16;4948381;28;20513;-76
2022/08/16 08:41:56;;;;;;;8.75;7.95;;;;;;;33.66;22.50;100653.63;4967638;28;20101;-79
2022/08/16 08:44:23;;;;;;;10.07;9.05;;;;;;;32.97;23.68;100657.19;4962443;28;20461;-77
2022/08/16 08:46:48;;;;;;;8.60;7.78;;;;;;;33.69;23.67;100657.75;4946124;28;20035;-76
2022/08/16 08:49:14;;;;;;;6.72;5.88;;;;;;;35.68;21.33;100660.03;4968594;28;20034;-78
2022/08/16 08:51:41;;;;;;;8.32;7.60;;;;;;;35.59;20.47;100666.88;4952918;28;20053;-79
2022/08/16 08:54:09;;;;;;;10.63;7.60;;;;;;;34.34;21.86;100660.13;4955663;28;20042;-79
2022/08/16 08:56:36;;;;;;;8.02;7.22;;;;;;;33.33;22.47;100662.00;4951132;28;20039;-80
2022/08/16 08:59:09;;;;;;;8.43;7.65;;;;;;;31.47;23.60;100668.56;4978133;28;20075;-76
2022/08/16 09:01:38;;;;;;;12.63;8.45;;;;;;;31.07;25.63;100668.47;4980811;28;20600;-77
2022/08/16 09:04:06;;;;;;;11.38;8.48;;;;;;;31.64;25.00;100669.00;4984030;28;20683;-77
2022/08/16 09:06:37;;;;;;;10.35;6.80;;;;;;;32.60;23.96;100665.81;4977100;28;20030;-76
2022/08/16 09:09:04;;;;;;;9.77;8.77;;;;;;;30.73;26.60;100678.25;4968032;28;20582;-77
2022/08/16 09:11:33;;;;;;;12.35;8.52;;;;;;;30.34;26.79;100671.56;4971801;28;20038;-78
2022/08/16 09:13:59;;;;;;;7.88;7.18;;;;;;;29.92;27.58;100676.00;4981685;28;20460;-78
2022/08/16 09:16:24;;;;;;;8.95;7.93;;;;;;;30.32;26.52;100681.72;4970237;28;20110;-80
2022/08/16 09:18:50;;;;;;;11.48;7.88;;;;;;;30.58;27.21;100680.25;4991296;28;20090;-78
2022/08/16 09:21:16;;;;;;;6.88;6.22;;;;;;;30.72;26.68;100678.47;4974659;28;20065;-79
2022/08/16 09:23:43;;;;;;;6.47;4.53;;;;;;;30.86;27.41;100668.56;4997680;28;20775;-77
2022/08/16 09:26:11;;;;;;;7.90;5.03;;;;;;;30.58;26.39;100674.88;4988957;28;20062;-77
2022/08/16 09:28:37;;;;;;;7.55;5.75;;;;;;;28.07;29.04;100672.59;4982831;28;20149;-77
2022/08/16 09:31:16;;;;;;;7.70;5.30;;;;;;;27.76;28.95;100676.22;4989993;28;20397;-77
2022/08/16 09:33:43;;;;;;;7.70;5.10;;;;;;;27.15;29.69;100673.41;4988406;28;20215;-79
2022/08/16 09:36:09;;;;;;;7.32;4.97;;;;;;;28.66;28.53;100679.97;4988094;28;20048;-77
2022/08/16 09:38:37;;;;;;;5.28;4.88;;;;;;;29.57;26.97;100675.88;4980760;28;20042;-77
2022/08/16 09:41:05;;;;;;;7.00;4.28;;;;;;;28.83;28.11;100685.97;4978936;28;20041;-79
2022/08/16 09:43:32;;;;;;;6.22;4.32;;;;;;;29.08;27.32;100679.25;4981379;28;20041;-78
2022/08/16 09:45:58;;;;;;;4.72;4.18;;;;;;;29.38;26.64;100681.06;4980719;28;20042;-77
2022/08/16 09:48:23;;;;;;;5.38;4.85;;;;;;;29.26;27.28;100680.72;4981194;28;20054;-76
2022/08/16 09:50:49;;;;;;;8.18;4.97;;;;;;;29.09;27.04;100682.78;4977880;28;20138;-76
2022/08/16 09:53:17;;;;;;;6.10;5.15;;;;;;;28.22;28.68;100680.72;4981386;28;20663;-77
2022/08/16 09:55:45;;;;;;;9.73;4.82;;;;;;;27.86;29.42;100684.88;4977581;28;20559;-78
2022/08/16 09:58:12;;;;;;;6.63;5.07;;;;;;;28.21;28.33;100685.28;4983050;28;20062;-78
2022/08/16 10:00:37;;;;;;;8.20;5.60;;;;;;;29.28;27.42;100681.34;4980692;28;20030;-76
2022/08/16 10:03:04;;;;;;;7.15;5.35;;;;;;;28.87;29.30;100689.94;4962934;28;20069;-76
2022/08/16 10:05:36;;;;;;;7.00;5.90;;;;;;;29.45;27.80;100677.41;4979899;28;20038;-74
2022/08/16 10:08:03;;;;;;;8.70;5.78;;;;;;;29.82;26.83;100672.81;4969511;28;20104;-76
2022/08/16 10:10:30;;;;;;;10.52;6.13;;;;;;;28.86;28.16;100666.75;4962263;28;20429;-77
2022/08/16 10:13:13;;;;;;;7.30;4.90;;;;;;;29.83;27.61;100669.09;4973861;28;20084;-76
2022/08/16 10:15:46;;;;;;;9.60;6.28;;;;;;;28.14;28.70;100665.50;4973319;28;20186;-77
2022/08/16 10:18:13;;;;;;;9.82;5.50;;;;;;;29.45;27.49;100671.19;4968898;28;20053;-78
2022/08/16 10:20:42;;;;;;;9.93;6.45;;;;;;;29.67;27.09;100674.75;4979833;28;20038;-77
2022/08/16 10:23:12;;;;;;;5.32;4.60;;;;;;;30.43;26.38;100684.91;4982305;28;20069;-80
2022/08/16 10:25:41;;;;;;;5.45;4.85;;;;;;;30.42;25.39;100678.66;4982023;28;20109;-77
2022/08/16 10:28:08;;;;;;;5.28;4.82;;;;;;;29.80;26.08;100679.41;4979075;28;20505;-78
2022/08/16 10:30:35;;;;;;;10.45;5.95;;;;;;;29.28;26.88;100689.44;4983365;28;20519;-78
2022/08/16 10:33:00;;;;;;;5.60;4.97;;;;;;;29.78;26.75;100687.69;4954067;28;20069;-77
2022/08/16 10:35:26;;;;;;;5.25;4.75;;;;;;;29.87;26.91;100691.94;4974645;28;20576;-80
2022/08/16 10:37:51;;;;;;;5.57;5.05;;;;;;;30.07;25.46;100697.47;4961392;28;20544;-77
2022/08/16 10:40:19;;;;;;;9.48;5.53;;;;;;;29.46;26.31;100695.25;4963453;28;20077;-79
2022/08/16 10:42:45;;;;;;;7.03;5.90;;;;;;;29.56;26.38;100706.50;4966602;28;20129;-79
2022/08/16 10:45:10;;;;;;;6.65;5.85;;;;;;;29.93;25.94;100690.28;4989299;28;20108;-77
2022/08/16 10:47:37;;;;;;;7.95;5.35;;;;;;;29.19;26.71;100704.03;4980890;28;20634;-76
2022/08/16 10:50:05;;;;;;;9.05;4.65;;;;;;;29.55;26.23;100707.56;4982164;28;20034;-77
2022/08/16 10:52:32;;;;;;;7.65;5.75;;;;;;;28.56;27.85;100701.69;4978820;28;20612;-76
2022/08/16 10:54:59;;;;;;;7.63;5.43;;;;;;;28.86;27.89;100705.25;4981041;28;20089;-79
2022/08/16 10:57:26;;;;;;;6.22;4.82;;;;;;;29.54;26.72;100710.44;4971483;28;20326;-77
2022/08/16 10:59:52;;;;;;;8.05;5.70;;;;;;;29.07;26.96;100704.47;4975764;28;20070;-78
2022/08/16 11:02:18;;;;;;;5.70;5.20;;;;;;;29.20;27.30;100711.09;4960535;28;20518;-78
2022/08/16 11:04:44;;;;;;;6.20;5.55;;;;;;;29.08;26.43;100708.00;4960648;28;20046;-78
2022/08/16 11:07:10;;;;;;;7.82;5.07;;;;;;;29.64;25.68;100702.06;4958742;28;20177;-78
2022/08/16 11:09:37;;;;;;;5.68;4.85;;;;;;;30.59;25.51;100711.56;4937629;28;20046;-79
2022/08/16 11:12:04;;;;;;;8.32;5.20;;;;;;;29.83;26.42;100709.50;4977564;28;20042;-78
2022/08/16 11:14:30;;;;;;;8.55;5.15;;;;;;;30.46;25.97;100712.28;4960467;28;20034;-79
2022/08/16 11:16:58;;;;;;;5.70;5.13;;;;;;;30.70;25.57;100710.19;4948804;28;20038;-79
2022/08/16 11:19:24;;;;;;;7.38;4.88;;;;;;;29.60;25.72;100716.94;4969761;28;20041;-77